Time;durP1;ratioP1;P1;durP2;ratioP2;P2;SDS_P1;SDS_P2;PMS_P1;PMS_P2;Temp;Humidity;BMP_temperature;BMP_pressure;BME280_temperature;BME280_humidity;BME280_pressure;Samples;Min_cycle;Max_cycle;Signal;HPM_P1;HPM_P2
2022/04/01 00:02:25;;;;;;;25.10;18.33;;;;;;;4.57;100.00;94147.25;5091142;28;20039;-77
2022/04/01 00:04:51;;;;;;;27.30;17.83;;;;;;;4.53;100.00;94145.16;5103010;28;20027;-76
2022/04/01 00:07:17;;;;;;;21.93;15.17;;;;;;;4.44;100.00;94145.22;5091251;28;20126;-76
2022/04/01 00:09:43;;;;;;;19.33;13.87;;;;;;;4.51;100.00;94147.13;5096240;28;20040;-77
2022/04/01 00:12:10;;;;;;;22.13;15.33;;;;;;;4.46;100.00;94142.44;5107588;28;20039;-76
2022/04/01 00:14:36;;;;;;;16.57;12.63;;;;;;;4.30;100.00;94151.16;5090867;28;20030;-76
2022/04/01 00:17:02;;;;;;;15.03;9.87;;;;;;;4.18;100.00;94149.94;5099823;28;20787;-77
2022/04/01 00:19:28;;;;;;;13.03;8.63;;;;;;;4.09;100.00;94148.34;5108348;28;20067;-76
2022/04/01 00:21:55;;;;;;;13.97;8.87;;;;;;;4.16;100.00;94154.50;5103807;28;20062;-76
2022/04/01 00:24:22;;;;;;;13.23;8.63;;;;;;;4.14;100.00;94151.25;5105117;28;20524;-77
2022/04/01 00:26:47;;;;;;;12.70;8.67;;;;;;;4.09;100.00;94150.94;5087785;28;20282;-76
2022/04/01 00:29:16;;;;;;;13.87;9.50;;;;;;;4.03;100.00;94160.25;5090759;28;20116;-76
2022/04/01 00:31:50;;;;;;;12.13;8.37;;;;;;;4.05;100.00;94157.47;5107431;28;20046;-75
2022/04/01 00:34:17;;;;;;;12.03;8.63;;;;;;;3.85;100.00;94157.88;5102978;28;20051;-75
2022/04/01 00:36:51;;;;;;;13.40;9.13;;;;;;;4.03;100.00;94156.84;5103330;28;20059;-76
2022/04/01 00:39:20;;;;;;;13.43;9.00;;;;;;;4.09;100.00;94153.53;5105633;28;20063;-76
2022/04/01 00:41:47;;;;;;;12.60;8.50;;;;;;;4.07;100.00;94165.94;5107471;28;20038;-76
2022/04/01 00:44:22;;;;;;;13.33;9.10;;;;;;;4.05;100.00;94162.69;5107146;28;20533;-76
2022/04/01 00:47:15;;;;;;;14.50;9.27;;;;;;;4.09;100.00;94158.75;5100741;28;20457;-76
2022/04/01 00:49:42;;;;;;;12.87;8.90;;;;;;;3.95;100.00;94168.09;5108607;28;20044;-75
2022/04/01 00:52:14;;;;;;;14.03;9.43;;;;;;;3.96;100.00;94169.72;5112039;28;20058;-76
2022/04/01 00:54:40;;;;;;;12.03;8.67;;;;;;;3.79;100.00;94166.38;5112280;28;20459;-76
2022/04/01 00:57:10;;;;;;;12.90;8.23;;;;;;;3.71;100.00;94163.78;5090319;28;20106;-75
2022/04/01 00:59:36;;;;;;;12.03;8.10;;;;;;;3.85;100.00;94167.47;5108879;28;20035;-74
2022/04/01 01:02:03;;;;;;;12.80;8.80;;;;;;;3.81;100.00;94171.41;5089815;28;20104;-76
2022/04/01 01:04:29;;;;;;;11.83;8.13;;;;;;;3.46;100.00;94174.28;5110081;28;20023;-76
2022/04/01 01:07:00;;;;;;;12.23;7.77;;;;;;;3.40;100.00;94167.13;5109860;28;20114;-74
2022/04/01 01:09:26;;;;;;;14.30;8.43;;;;;;;3.39;100.00;94168.13;5103730;28;20031;-76
2022/04/01 01:11:53;;;;;;;11.23;7.17;;;;;;;3.10;100.00;94168.66;5094471;28;20420;-75
2022/04/01 01:14:28;;;;;;;10.03;6.10;;;;;;;3.19;100.00;94170.28;5106228;28;20062;-76
2022/04/01 01:16:54;;;;;;;10.20;6.53;;;;;;;3.20;100.00;94174.47;5119369;27;20027;-76
2022/04/01 01:19:20;;;;;;;9.00;6.10;;;;;;;2.89;100.00;94170.94;5110672;28;20281;-75
2022/04/01 01:21:51;;;;;;;9.53;6.53;;;;;;;2.84;100.00;94174.00;5096913;28;20020;-76
2022/04/01 01:24:17;;;;;;;9.07;5.23;;;;;;;2.85;100.00;94173.06;5110682;28;20028;-76
2022/04/01 01:26:49;;;;;;;7.77;4.60;;;;;;;2.72;100.00;94170.13;5111269;28;20397;-75
2022/04/01 01:29:22;;;;;;;7.90;4.83;;;;;;;2.55;100.00;94175.31;5101331;28;20730;-76
2022/04/01 01:31:48;;;;;;;8.57;5.07;;;;;;;2.52;100.00;94175.63;5111378;28;20070;-76
2022/04/01 01:34:16;;;;;;;8.37;5.37;;;;;;;2.50;100.00;94172.38;5086047;28;20023;-76
2022/04/01 01:36:42;;;;;;;8.03;4.87;;;;;;;2.49;100.00;94170.75;5102800;28;20028;-74
2022/04/01 01:39:08;;;;;;;7.70;5.00;;;;;;;2.49;100.00;94169.97;5107011;28;20037;-76
2022/04/01 01:41:34;;;;;;;6.67;4.20;;;;;;;2.40;100.00;94173.50;5112320;28;20545;-76
2022/04/01 01:43:59;;;;;;;7.20;4.53;;;;;;;2.31;100.00;94165.72;5110271;28;20047;-76
2022/04/01 01:46:26;;;;;;;8.23;4.80;;;;;;;2.21;100.00;94177.19;5090909;28;20050;-76
2022/04/01 01:48:52;;;;;;;8.43;4.73;;;;;;;2.26;100.00;94175.75;5111176;27;20403;-76
2022/04/01 01:56:47;;;;;;;7.60;4.10;;;;;;;2.32;100.00;94179.50;5108444;28;20046;-76
2022/04/01 01:59:14;;;;;;;7.73;4.63;;;;;;;2.30;100.00;94171.06;5110434;28;20038;-76
2022/04/01 02:01:41;;;;;;;8.17;4.80;;;;;;;2.15;100.00;94170.88;5093705;28;20032;-75
2022/04/01 02:04:09;;;;;;;8.63;4.70;;;;;;;2.15;100.00;94178.66;5091854;28;20377;-75
2022/04/01 02:06:35;;;;;;;7.43;4.43;;;;;;;2.12;100.00;94174.59;5110534;28;20032;-76
2022/04/01 02:09:02;;;;;;;7.57;4.13;;;;;;;2.08;100.00;94167.28;5109395;28;20031;-76
2022/04/01 02:11:28;;;;;;;7.77;4.90;;;;;;;1.98;100.00;94177.78;5097319;28;20020;-76
2022/04/01 02:13:57;;;;;;;6.57;3.97;;;;;;;1.79;100.00;94172.88;5107645;28;20055;-76
2022/04/01 02:16:24;;;;;;;9.83;5.07;;;;;;;1.85;100.00;94174.84;5110300;28;20035;-75
2022/04/01 02:18:50;;;;;;;8.00;5.33;;;;;;;1.68;100.00;94178.31;5110237;28;20034;-75
2022/04/01 02:21:17;;;;;;;7.80;5.00;;;;;;;1.68;100.00;94176.56;5109544;28;20028;-74
2022/04/01 02:23:45;;;;;;;8.23;5.30;;;;;;;1.63;100.00;94171.00;5108595;28;20057;-76
2022/04/01 02:26:13;;;;;;;8.00;5.27;;;;;;;1.65;100.00;94177.66;5107272;28;20024;-76
2022/04/01 02:28:41;;;;;;;7.80;5.33;;;;;;;1.70;100.00;94173.78;5106144;28;20036;-76
2022/04/01 02:31:11;;;;;;;8.07;4.67;;;;;;;1.59;100.00;94177.47;5106719;28;20028;-76
2022/04/01 02:34:15;;;;;;;7.77;4.97;;;;;;;1.45;100.00;94173.69;5047217;28;20674;-75
2022/04/01 02:36:41;;;;;;;9.43;5.47;;;;;;;1.38;100.00;94181.25;5017817;28;20032;-76
2022/04/01 02:39:06;;;;;;;7.50;4.73;;;;;;;1.43;100.00;94173.00;5065372;28;20116;-75
2022/04/01 02:41:33;;;;;;;7.47;4.67;;;;;;;1.36;100.00;94182.38;5099265;28;20028;-76
2022/04/01 02:44:08;;;;;;;7.37;4.73;;;;;;;1.29;100.00;94189.13;5091494;28;20119;-76
2022/04/01 02:46:38;;;;;;;7.40;4.27;;;;;;;1.21;100.00;94183.88;5092939;28;20023;-76
2022/04/01 02:49:06;;;;;;;6.83;4.40;;;;;;;1.16;100.00;94187.75;5101229;28;20465;-76
2022/04/01 02:51:39;;;;;;;7.67;4.67;;;;;;;1.20;100.00;94190.03;5109754;28;20489;-76
2022/04/01 02:54:14;;;;;;;7.67;4.77;;;;;;;1.16;100.00;94186.94;5090010;28;21013;-75
2022/04/01 02:56:41;;;;;;;7.63;4.43;;;;;;;1.07;100.00;94183.47;5101728;28;20482;-75
2022/04/01 02:59:08;;;;;;;7.67;4.57;;;;;;;1.22;100.00;94188.13;5107651;28;20461;-76
2022/04/01 03:01:36;;;;;;;9.17;4.73;;;;;;;1.15;100.00;94188.72;5109250;28;20469;-76
2022/04/01 03:04:03;;;;;;;6.97;4.50;;;;;;;1.04;100.00;94196.75;5100367;28;20495;-75
2022/04/01 03:06:33;;;;;;;8.43;4.90;;;;;;;1.02;100.00;94185.72;5092627;28;20461;-75
2022/04/01 03:08:59;;;;;;;8.30;5.00;;;;;;;0.97;100.00;94192.31;5091593;28;20038;-76
2022/04/01 03:11:25;;;;;;;7.80;4.90;;;;;;;1.00;100.00;94194.59;5099163;28;20020;-76
2022/04/01 03:13:51;;;;;;;7.40;4.63;;;;;;;0.96;100.00;94196.66;5110939;27;20027;-75
2022/04/01 03:16:40;;;;;;;7.10;4.20;;;;;;;1.01;100.00;94199.63;5099462;28;21204;-76
2022/04/01 03:19:10;;;;;;;8.00;4.63;;;;;;;0.82;100.00;94203.19;5110269;28;20449;-76
2022/04/01 03:21:39;;;;;;;6.80;4.33;;;;;;;0.82;100.00;94203.19;5108289;28;20476;-76
2022/04/01 03:24:11;;;;;;;7.33;4.63;;;;;;;0.95;100.00;94195.06;5107119;28;20477;-76
2022/04/01 03:26:39;;;;;;;6.77;4.23;;;;;;;0.81;100.00;94203.38;5108466;28;20477;-75
2022/04/01 03:29:12;;;;;;;7.70;4.90;;;;;;;0.74;100.00;94200.56;5107794;28;20502;-75
2022/04/01 03:31:40;;;;;;;7.43;4.97;;;;;;;0.82;100.00;94207.56;5111476;28;21254;-75
2022/04/01 03:34:06;;;;;;;7.07;4.27;;;;;;;0.75;100.00;94203.97;5109659;28;20537;-75
2022/04/01 03:36:33;;;;;;;7.93;4.43;;;;;;;0.79;100.00;94205.28;5110059;28;21064;-75
2022/04/01 03:39:00;;;;;;;8.10;4.23;;;;;;;0.81;100.00;94206.75;5093007;28;20442;-75
2022/04/01 03:41:53;;;;;;;6.65;3.75;;;;;;;0.68;100.00;94206.31;5106558;28;20803;-75
2022/04/01 03:44:24;;;;;;;12.50;7.87;;;;;;;0.72;100.00;94199.88;5103593;28;20119;-75
2022/04/01 03:47:10;;;;;;;11.87;6.73;;;;;;;0.76;100.00;94205.56;5102252;28;20534;-74
2022/04/01 03:49:45;;;;;;;9.43;5.60;;;;;;;0.77;100.00;94202.84;5090587;28;20557;-75
2022/04/01 03:52:13;;;;;;;8.40;5.70;;;;;;;0.81;100.00;94200.78;5101517;28;20543;-75
2022/04/01 03:54:43;;;;;;;7.27;4.40;;;;;;;0.80;100.00;94205.13;5089268;28;21019;-75
2022/04/01 03:57:47;;;;;;;7.60;4.30;;;;;;;0.78;100.00;94204.47;5087862;28;21061;-75
2022/04/01 04:00:32;;;;;;;6.80;3.77;;;;;;;0.73;100.00;94213.63;5096508;28;20496;-75
2022/04/01 04:03:06;;;;;;;6.90;4.17;;;;;;;0.63;100.00;94201.59;5106607;28;20499;-75
2022/04/01 04:05:36;;;;;;;6.00;3.88;;;;;;;0.60;100.00;94206.25;5109343;28;20456;-74
2022/04/01 04:08:06;;;;;;;5.63;3.17;;;;;;;0.62;100.00;94205.13;5109903;28;20046;-75
2022/04/01 04:10:34;;;;;;;6.10;3.80;;;;;;;0.60;100.00;94209.63;5091627;28;20480;-75
2022/04/01 04:13:37;;;;;;;6.57;3.87;;;;;;;0.59;100.00;94214.97;5089106;28;20463;-75
2022/04/01 04:16:10;;;;;;;6.13;3.90;;;;;;;0.63;100.00;94211.94;5097454;28;20468;-75
2022/04/01 04:18:48;;;;;;;5.20;2.83;;;;;;;0.50;100.00;94219.25;5110785;28;20461;-75
2022/04/01 04:21:31;;;;;;;6.43;3.80;;;;;;;0.51;100.00;94217.50;5103269;28;20054;-75
2022/04/01 04:24:01;;;;;;;5.60;3.13;;;;;;;0.61;100.00;94208.69;5116082;28;20450;-75
2022/04/01 04:26:37;;;;;;;5.63;3.40;;;;;;;0.59;100.00;94205.44;5114132;28;20474;-75
2022/04/01 04:29:15;;;;;;;11.83;6.53;;;;;;;0.54;100.00;94212.84;5112413;28;20509;-75
2022/04/01 04:32:03;;;;;;;8.77;3.60;;;;;;;0.54;100.00;94207.66;5115031;27;21231;-75
2022/04/01 04:34:45;;;;;;;5.10;3.00;;;;;;;0.49;100.00;94209.06;5112794;28;20511;-75
2022/04/01 04:37:13;;;;;;;4.83;2.80;;;;;;;0.46;100.00;94221.31;5112440;28;20493;-75
2022/04/01 04:39:43;;;;;;;5.57;3.03;;;;;;;0.48;100.00;94213.41;5113998;28;20484;-75
2022/04/01 04:42:09;;;;;;;5.37;2.80;;;;;;;0.43;100.00;94215.63;5118103;28;20993;-75
2022/04/01 04:44:36;;;;;;;5.70;3.40;;;;;;;0.53;100.00;94221.53;5109330;27;20982;-75
2022/04/01 04:47:07;;;;;;;4.50;2.87;;;;;;;0.47;100.00;94216.97;5097832;28;20469;-76
2022/04/01 04:49:35;;;;;;;5.00;3.17;;;;;;;0.43;100.00;94221.59;5111635;28;20461;-75
2022/04/01 04:52:02;;;;;;;5.73;3.40;;;;;;;0.32;100.00;94223.59;5101613;28;20465;-76
2022/04/01 04:54:33;;;;;;;4.47;2.67;;;;;;;0.34;100.00;94224.28;5113509;28;20453;-76
2022/04/01 04:57:20;;;;;;;4.80;2.70;;;;;;;0.30;100.00;94223.72;5110260;28;20510;-76
2022/04/01 04:59:48;;;;;;;4.20;2.57;;;;;;;0.31;100.00;94229.75;5115074;27;20469;-76
2022/04/01 05:02:26;;;;;;;5.97;3.67;;;;;;;0.42;100.00;94229.53;5113427;27;20925;-76
2022/04/01 05:05:12;;;;;;;16.20;9.37;;;;;;;0.46;100.00;94230.84;5109957;28;20462;-75
2022/04/01 05:08:07;;;;;;;8.97;5.30;;;;;;;0.37;100.00;94248.06;5118548;27;21004;-75
2022/04/01 05:11:08;;;;;;;4.97;2.90;;;;;;;0.39;100.00;94245.31;5102084;28;20784;-74
2022/04/01 05:13:52;;;;;;;4.17;2.43;;;;;;;0.25;100.00;94243.25;5112970;28;20527;-74
2022/04/01 05:16:38;;;;;;;;;;;;;;;0.32;100.00;94252.84;5116060;28;20552;-75
2022/04/01 05:19:09;;;;;;;3.50;2.03;;;;;;;0.27;100.00;94251.66;5100866;28;19918;-75
2022/04/01 05:21:48;;;;;;;4.18;2.42;;;;;;;0.35;100.00;94257.72;5117084;28;21099;-75
2022/04/01 05:24:21;;;;;;;3.63;2.20;;;;;;;0.37;100.00;94258.41;5110635;28;20058;-75
2022/04/01 05:26:54;;;;;;;4.47;2.37;;;;;;;0.38;100.00;94257.44;5104122;28;21035;-75
2022/04/01 05:29:42;;;;;;;3.67;2.10;;;;;;;0.30;100.00;94261.69;5124567;28;20437;-76
2022/04/01 05:32:10;;;;;;;3.40;2.10;;;;;;;0.22;100.00;94265.81;5127119;28;20460;-75
2022/04/01 05:34:49;;;;;;;4.07;2.10;;;;;;;0.29;100.00;94260.09;5088997;28;21020;-75
2022/04/01 05:37:17;;;;;;;3.93;2.50;;;;;;;0.36;100.00;94266.31;5106135;28;20510;-75
2022/04/01 05:39:46;;;;;;;3.47;2.10;;;;;;;0.35;100.00;94264.69;5095206;28;20473;-75
2022/04/01 05:42:15;;;;;;;3.87;2.13;;;;;;;0.31;100.00;94273.69;5111158;28;20474;-75
2022/04/01 05:45:04;;;;;;;3.37;1.90;;;;;;;0.29;100.00;94275.59;5107581;28;20457;-75
2022/04/01 05:47:32;;;;;;;3.30;1.90;;;;;;;0.26;100.00;94266.34;5108758;28;20527;-75
2022/04/01 05:50:00;;;;;;;3.10;1.77;;;;;;;0.32;100.00;94280.47;5102776;28;20525;-75
2022/04/01 05:52:26;;;;;;;3.83;2.20;;;;;;;0.39;100.00;94281.53;5110058;28;20615;-75
2022/04/01 05:54:54;;;;;;;2.80;1.83;;;;;;;0.36;100.00;94276.63;5111724;28;20457;-75
2022/04/01 05:57:20;;;;;;;3.37;2.20;;;;;;;0.29;100.00;94276.41;5093004;28;20928;-75
2022/04/01 05:59:47;;;;;;;3.57;2.00;;;;;;;0.30;100.00;94285.78;5109317;28;20462;-75
2022/04/01 06:02:32;;;;;;;4.77;2.20;;;;;;;0.29;100.00;94285.94;5091617;28;20472;-75
2022/04/01 06:05:17;;;;;;;2.83;1.83;;;;;;;0.23;100.00;94284.72;5110770;28;20496;-75
2022/04/01 06:08:13;;;;;;;4.60;2.07;;;;;;;0.27;100.00;94291.28;5113127;28;20465;-74
2022/04/01 06:11:04;;;;;;;4.40;2.40;;;;;;;0.26;100.00;94293.97;5107607;28;20473;-75
2022/04/01 06:14:06;;;;;;;8.77;5.18;;;;;;;0.22;100.00;94290.88;5102883;28;20461;-75
2022/04/01 06:17:23;;;;;;;4.63;2.23;;;;;;;0.25;100.00;94292.34;5101621;28;20042;-75
2022/04/01 06:19:51;;;;;;;3.67;1.83;;;;;;;0.23;100.00;94295.91;5067272;28;20536;-75
2022/04/01 06:22:20;;;;;;;3.13;1.93;;;;;;;0.23;100.00;94292.50;5087333;28;20464;-74
2022/04/01 06:25:03;;;;;;;3.57;2.20;;;;;;;0.19;100.00;94296.31;5104122;28;20481;-75
2022/04/01 06:27:39;;;;;;;3.73;2.23;;;;;;;0.27;100.00;94299.03;5108080;28;20473;-74
2022/04/01 06:30:07;;;;;;;5.13;2.70;;;;;;;0.17;100.00;94299.06;5101425;28;20547;-74
2022/04/01 06:32:52;;;;;;;4.47;2.67;;;;;;;0.18;100.00;94298.09;5095459;28;20103;-75
2022/04/01 06:35:56;;;;;;;4.33;2.50;;;;;;;0.16;100.00;94305.16;5086812;28;20478;-75
2022/04/01 06:38:54;;;;;;;4.80;2.67;;;;;;;0.19;100.00;94306.66;5088331;28;20481;-74
2022/04/01 06:41:30;;;;;;;7.27;4.10;;;;;;;0.28;100.00;94300.63;5106486;28;20469;-74
2022/04/01 06:44:05;;;;;;;5.13;2.90;;;;;;;0.23;100.00;94308.84;5094935;28;21036;-74
2022/04/01 06:46:50;;;;;;;4.77;2.60;;;;;;;0.12;100.00;94315.94;5108933;28;20464;-74
2022/04/01 06:49:19;;;;;;;4.73;2.87;;;;;;;0.21;100.00;94304.75;5076644;28;20998;-74
2022/04/01 06:52:04;;;;;;;4.10;2.40;;;;;;;0.17;100.00;94319.75;5112399;28;20467;-74
2022/04/01 06:54:49;;;;;;;4.30;2.47;;;;;;;0.27;100.00;94309.38;5111634;28;20432;-74
2022/04/01 06:57:53;;;;;;;5.28;2.80;;;;;;;0.13;100.00;94307.22;5105333;28;20482;-75
2022/04/01 07:00:26;;;;;;;5.10;2.80;;;;;;;0.21;100.00;94315.91;5104445;28;20036;-75
2022/04/01 07:02:52;;;;;;;4.80;2.57;;;;;;;0.18;100.00;94308.44;5101760;28;20092;-75
2022/04/01 07:05:18;;;;;;;5.20;2.90;;;;;;;0.20;100.00;94306.53;5099260;28;20473;-75
2022/04/01 07:07:44;;;;;;;8.53;5.50;;;;;;;0.12;100.00;94315.94;5103885;28;20076;-75
2022/04/01 07:10:14;;;;;;;9.07;5.97;;;;;;;0.20;100.00;94314.28;5111901;28;20445;-75
2022/04/01 07:12:41;;;;;;;5.53;3.17;;;;;;;0.17;100.00;94313.75;5108976;28;20054;-76
2022/04/01 07:15:09;;;;;;;4.60;2.80;;;;;;;0.22;100.00;94319.31;5099116;28;20453;-75
2022/04/01 07:17:35;;;;;;;4.57;2.63;;;;;;;0.22;100.00;94312.34;5105761;28;20453;-76
2022/04/01 07:20:02;;;;;;;5.87;3.23;;;;;;;0.25;100.00;94313.84;5111366;28;21247;-75
2022/04/01 07:22:27;;;;;;;6.10;3.70;;;;;;;0.21;100.00;94318.50;5102770;28;20549;-75
2022/04/01 07:24:53;;;;;;;4.97;2.67;;;;;;;0.23;100.00;94314.00;5112310;28;20429;-75
2022/04/01 07:27:19;;;;;;;5.53;3.10;;;;;;;0.30;100.00;94321.16;5102472;28;20122;-75
2022/04/01 07:29:45;;;;;;;5.43;3.20;;;;;;;0.29;100.00;94322.13;5108812;28;20039;-76
2022/04/01 07:32:29;;;;;;;4.77;3.03;;;;;;;0.23;100.00;94321.75;5097796;28;20019;-76
2022/04/01 07:34:56;;;;;;;4.67;2.80;;;;;;;0.23;100.00;94328.69;5109075;28;20027;-75
2022/04/01 07:37:24;;;;;;;5.40;3.27;;;;;;;0.29;100.00;94324.72;5089783;27;20567;-74
2022/04/01 07:39:54;;;;;;;4.17;2.63;;;;;;;0.26;100.00;94330.16;5108219;28;20465;-75
2022/04/01 07:42:21;;;;;;;5.73;3.60;;;;;;;0.23;100.00;94332.09;5103547;28;20477;-75
2022/04/01 07:44:48;;;;;;;4.97;3.00;;;;;;;0.18;100.00;94331.69;5109949;28;20465;-75
2022/04/01 07:47:14;;;;;;;5.27;3.07;;;;;;;0.23;100.00;94329.53;5122303;27;20484;-75
2022/04/01 07:49:41;;;;;;;3.87;2.37;;;;;;;0.30;100.00;94334.91;5103858;28;20466;-75
2022/04/01 07:52:12;;;;;;;5.13;3.07;;;;;;;0.39;100.00;94328.06;5110534;28;21299;-75
2022/04/01 07:54:40;;;;;;;5.47;3.23;;;;;;;0.33;100.00;94328.63;5094500;28;20472;-75
2022/04/01 07:57:07;;;;;;;4.90;2.97;;;;;;;0.32;100.00;94337.34;5110313;28;20484;-75
2022/04/01 07:59:33;;;;;;;5.23;2.93;;;;;;;0.28;100.00;94336.03;5116535;27;20561;-75
2022/04/01 08:01:59;;;;;;;27.80;18.83;;;;;;;0.43;100.00;94342.31;5089663;28;20466;-75
2022/04/01 08:04:26;;;;;;;11.00;7.40;;;;;;;0.43;100.00;94332.78;5083156;28;20480;-75
2022/04/01 08:06:57;;;;;;;6.10;3.57;;;;;;;0.40;100.00;94343.44;5107651;28;20380;-74
2022/04/01 08:09:25;;;;;;;5.70;2.80;;;;;;;0.42;100.00;94340.72;5111687;27;20791;-75
2022/04/01 08:11:52;;;;;;;5.30;3.03;;;;;;;0.37;100.00;94335.13;5107531;28;20462;-76
2022/04/01 08:14:19;;;;;;;5.80;3.17;;;;;;;0.36;100.00;94344.66;5102256;28;20481;-74
2022/04/01 08:16:46;;;;;;;4.87;2.43;;;;;;;0.35;100.00;94348.22;5109842;28;20549;-75
2022/04/01 08:19:13;;;;;;;6.00;3.00;;;;;;;0.36;100.00;94349.03;5106058;28;20461;-76
2022/04/01 08:21:39;;;;;;;4.50;2.77;;;;;;;0.43;100.00;94356.06;5090613;28;20618;-75
2022/04/01 08:24:05;;;;;;;4.63;2.60;;;;;;;0.33;100.00;94346.72;5110781;28;20465;-74
2022/04/01 08:26:31;;;;;;;5.40;2.90;;;;;;;0.30;100.00;94352.19;5102617;28;20446;-74
2022/04/01 08:28:56;;;;;;;4.30;2.60;;;;;;;0.20;100.00;94347.06;5101208;28;20036;-75
2022/04/01 08:31:23;;;;;;;4.17;2.40;;;;;;;0.28;100.00;94359.28;5112087;28;20031;-75
2022/04/01 08:33:50;;;;;;;5.27;2.80;;;;;;;0.30;100.00;94365.13;5112192;28;20038;-75
2022/04/01 08:36:17;;;;;;;18.23;12.57;;;;;;;0.33;100.00;94367.41;5112318;28;20457;-75
2022/04/01 08:38:43;;;;;;;12.40;6.87;;;;;;;0.35;100.00;94368.09;5111123;28;20476;-75
2022/04/01 08:41:09;;;;;;;6.20;3.70;;;;;;;0.34;100.00;94367.28;5097105;28;20465;-74
2022/04/01 08:43:39;;;;;;;5.23;2.77;;;;;;;0.33;100.00;94375.16;5112153;28;20457;-75
2022/04/01 08:46:07;;;;;;;4.33;2.23;;;;;;;0.42;100.00;94366.56;5107234;28;20446;-74
2022/04/01 08:48:35;;;;;;;4.87;2.90;;;;;;;0.35;100.00;94373.28;5107940;28;20817;-75
2022/04/01 08:51:00;;;;;;;4.90;2.43;;;;;;;0.29;100.00;94373.84;5105489;28;20472;-75
2022/04/01 08:53:26;;;;;;;4.60;2.20;;;;;;;0.28;100.00;94374.81;5090866;28;20545;-75
2022/04/01 08:55:55;;;;;;;4.00;2.20;;;;;;;0.40;100.00;94376.22;5108443;28;20032;-75
2022/04/01 08:58:22;;;;;;;4.40;2.33;;;;;;;0.37;100.00;94381.69;5092790;28;20020;-75
2022/04/01 09:00:49;;;;;;;10.17;6.07;;;;;;;0.46;100.00;94386.00;5105948;28;20465;-75
2022/04/01 09:03:17;;;;;;;8.63;5.50;;;;;;;0.43;100.00;94381.94;5110859;28;20406;-75
2022/04/01 09:05:52;;;;;;;4.40;2.43;;;;;;;0.39;100.00;94385.75;5105058;28;20474;-75
2022/04/01 09:08:23;;;;;;;6.90;3.87;;;;;;;0.50;100.00;94392.50;5107322;28;20833;-75
2022/04/01 09:10:58;;;;;;;52.93;34.13;;;;;;;0.56;100.00;94396.31;5105342;28;20545;-75
2022/04/01 09:13:27;;;;;;;9.40;5.47;;;;;;;0.57;100.00;94396.19;5109592;28;20472;-75
2022/04/01 09:15:54;;;;;;;5.07;2.63;;;;;;;0.47;100.00;94398.00;5114271;28;20876;-75
2022/04/01 09:18:32;;;;;;;4.50;2.27;;;;;;;0.45;100.00;94405.88;5113461;28;20462;-75
2022/04/01 09:20:58;;;;;;;3.70;2.43;;;;;;;0.62;100.00;94400.91;5100323;28;20473;-75
2022/04/01 09:23:24;;;;;;;4.30;2.30;;;;;;;0.67;100.00;94398.69;5108183;28;20453;-75
2022/04/01 09:25:52;;;;;;;4.23;2.33;;;;;;;0.58;100.00;94400.38;5109630;28;20031;-75
2022/04/01 09:28:29;;;;;;;3.97;1.90;;;;;;;0.60;100.00;94411.38;5113759;27;20543;-75
2022/04/01 09:31:10;;;;;;;4.07;2.27;;;;;;;0.59;100.00;94411.53;5103780;28;20473;-75
2022/04/01 09:33:42;;;;;;;4.37;2.30;;;;;;;0.65;100.00;94405.81;5112035;28;20470;-75
2022/04/01 09:36:10;;;;;;;5.90;3.03;;;;;;;0.60;100.00;94410.56;5112984;28;20466;-75
2022/04/01 09:38:37;;;;;;;6.00;2.40;;;;;;;0.59;100.00;94414.13;5109963;28;20453;-76
2022/04/01 09:41:06;;;;;;;3.93;2.43;;;;;;;0.70;100.00;94412.19;5109057;28;21783;-75
2022/04/01 09:43:39;;;;;;;3.10;1.87;;;;;;;0.55;100.00;94412.78;5102107;28;20479;-76
2022/04/01 09:46:06;;;;;;;4.20;2.17;;;;;;;0.50;100.00;94409.81;5110910;28;20488;-74
2022/04/01 09:48:40;;;;;;;3.83;2.10;;;;;;;0.56;100.00;94412.63;5112373;28;20055;-76
2022/04/01 09:51:09;;;;;;;4.03;2.10;;;;;;;0.60;100.00;94413.97;5106857;28;20460;-75
2022/04/01 09:53:35;;;;;;;5.03;2.17;;;;;;;0.69;100.00;94418.28;5111533;28;20472;-75
2022/04/01 09:56:01;;;;;;;3.83;2.10;;;;;;;0.63;100.00;94418.06;5110422;27;20496;-74
2022/04/01 09:58:27;;;;;;;4.73;2.73;;;;;;;0.69;100.00;94423.47;5102643;28;20497;-75
2022/04/01 10:00:56;;;;;;;5.33;3.03;;;;;;;0.62;100.00;94422.41;5101787;28;20036;-74
2022/04/01 10:03:22;;;;;;;3.30;1.93;;;;;;;0.73;100.00;94424.00;5111607;28;20502;-74
2022/04/01 10:05:50;;;;;;;4.43;2.67;;;;;;;0.89;100.00;94428.56;5083397;28;20458;-75
2022/04/01 10:08:16;;;;;;;3.97;2.40;;;;;;;0.87;100.00;94433.03;5107593;28;20840;-75
2022/04/01 10:10:43;;;;;;;4.43;2.33;;;;;;;0.81;100.00;94431.88;5102494;28;20449;-74
2022/04/01 10:13:22;;;;;;;4.00;1.90;;;;;;;0.85;100.00;94433.19;5110571;28;20038;-76
2022/04/01 10:15:49;;;;;;;2.77;1.70;;;;;;;0.71;100.00;94431.09;5102859;28;20533;-75
2022/04/01 10:18:18;;;;;;;5.43;2.67;;;;;;;0.79;100.00;94438.13;5093800;28;20457;-75
2022/04/01 10:20:44;;;;;;;20.83;13.00;;;;;;;0.75;100.00;94423.88;5111328;28;20505;-74
2022/04/01 10:23:11;;;;;;;8.30;4.10;;;;;;;0.69;100.00;94439.00;5111576;28;20447;-76
2022/04/01 10:26:05;;;;;;;3.27;1.97;;;;;;;0.73;100.00;94434.34;5112143;28;20031;-76
2022/04/01 10:28:31;;;;;;;4.13;1.73;;;;;;;0.75;100.00;94436.81;5107053;27;20442;-75
2022/04/01 10:31:00;;;;;;;4.30;2.23;;;;;;;0.81;100.00;94444.00;5111252;28;20030;-76
2022/04/01 10:33:35;;;;;;;3.83;2.00;;;;;;;0.87;100.00;94433.88;5087389;28;20031;-78
2022/04/01 10:36:22;;;;;;;3.53;1.90;;;;;;;0.88;100.00;94440.69;5112928;28;20815;-76
2022/04/01 10:38:49;;;;;;;4.20;2.13;;;;;;;0.88;100.00;94448.44;5103436;28;20456;-78
2022/04/01 10:41:15;;;;;;;3.30;1.67;;;;;;;0.69;100.00;94444.16;5110918;28;20510;-77
2022/04/01 10:43:47;;;;;;;3.13;1.83;;;;;;;0.69;100.00;94444.16;5093022;28;21108;-76
2022/04/01 10:46:19;;;;;;;3.00;1.73;;;;;;;0.76;100.00;94443.59;5101655;28;20465;-77
2022/04/01 10:52:10;;;;;;;3.87;2.10;;;;;;;0.98;100.00;94453.56;5107920;28;20819;-76
2022/04/01 10:54:42;;;;;;;3.23;1.90;;;;;;;0.98;100.00;94445.81;5091289;28;20469;-76
2022/04/01 10:57:09;;;;;;;5.10;2.50;;;;;;;0.99;100.00;94449.22;5103917;28;20522;-73
2022/04/01 10:59:43;;;;;;;3.83;1.93;;;;;;;1.05;100.00;94446.03;5111001;28;21175;-74
2022/04/01 11:02:11;;;;;;;2.60;1.53;;;;;;;0.99;100.00;94460.38;5104078;28;20863;-74
2022/04/01 11:04:41;;;;;;;3.40;2.20;;;;;;;1.08;100.00;94456.91;5100332;28;20853;-75
2022/04/01 11:07:14;;;;;;;3.57;2.03;;;;;;;1.26;100.00;94461.31;5106005;28;20856;-75
2022/04/01 11:09:56;;;;;;;3.10;1.67;;;;;;;1.12;100.00;94471.19;5101258;28;20448;-75
2022/04/01 11:12:28;;;;;;;3.00;1.80;;;;;;;1.13;100.00;94469.41;5108128;27;20448;-74
2022/04/01 11:17:24;;;;;;;10.53;6.93;;;;;;;0.91;100.00;94468.88;5104062;28;20497;-73
2022/04/01 11:19:59;;;;;;;2.70;1.83;;;;;;;0.97;100.00;94462.28;5123479;27;20040;-74
2022/04/01 11:22:37;;;;;;;3.53;2.00;;;;;;;1.15;100.00;94467.50;5108647;27;20484;-74
2022/04/01 11:25:05;;;;;;;3.73;1.77;;;;;;;1.04;100.00;94465.94;5109447;28;20476;-75
2022/04/01 11:27:31;;;;;;;3.47;2.07;;;;;;;0.93;100.00;94460.94;5108044;28;20477;-74
2022/04/01 11:30:13;;;;;;;3.27;2.03;;;;;;;1.06;100.00;94466.59;5106775;28;21016;-75
2022/04/01 11:32:41;;;;;;;5.10;2.90;;;;;;;0.80;100.00;94471.63;5119256;28;20028;-74
2022/04/01 11:35:09;;;;;;;3.10;1.93;;;;;;;0.78;100.00;94477.91;5110661;28;20446;-75
2022/04/01 11:37:44;;;;;;;3.50;2.33;;;;;;;0.75;100.00;94475.63;5095848;28;20494;-75
2022/04/01 11:40:16;;;;;;;3.93;2.43;;;;;;;0.72;100.00;94478.47;5114469;28;20454;-74
2022/04/01 11:43:05;;;;;;;3.20;1.83;;;;;;;0.72;100.00;94481.88;5095031;28;20818;-75
2022/04/01 11:45:44;;;;;;;6.20;3.60;;;;;;;0.82;100.00;94489.59;5111811;27;20953;-74
2022/04/01 11:48:35;;;;;;;8.63;5.87;;;;;;;0.81;100.00;94486.22;5103038;28;20552;-76
2022/04/01 11:51:04;;;;;;;5.53;3.37;;;;;;;0.68;100.00;94485.72;5109870;28;20636;-75
2022/04/01 11:53:41;;;;;;;6.97;4.27;;;;;;;1.02;100.00;94478.19;5110034;28;20465;-75
2022/04/01 11:56:10;;;;;;;6.50;3.87;;;;;;;1.12;100.00;94481.56;5105219;28;20983;-75
2022/04/01 11:58:58;;;;;;;5.57;3.53;;;;;;;1.12;100.00;94478.97;5106813;28;20483;-75
2022/04/01 12:01:33;;;;;;;5.93;3.57;;;;;;;0.94;100.00;94486.69;5094480;28;21013;-75
2022/04/01 12:04:11;;;;;;;3.83;2.30;;;;;;;1.16;100.00;94488.06;5111703;28;20445;-75
2022/04/01 12:09:29;;;;;;;4.17;2.47;;;;;;;0.95;100.00;94484.91;5104492;27;21004;-75